Time;durP1;ratioP1;P1;durP2;ratioP2;P2;SDS_P1;SDS_P2;PMS_P1;PMS_P2;Temp;Humidity;BMP_temperature;BMP_pressure;BME280_temperature;BME280_humidity;BME280_pressure;Samples;Min_cycle;Max_cycle;Signal;HPM_P1;HPM_P2
2023/04/11 06:47:42;;;;;;;3.50;0.57;;;13.60;99.90;;;;;;4886382;23;20248;-74
2023/04/11 06:50:09;;;;;;;2.60;0.50;;;13.70;99.90;;;;;;4867552;29;20220;-75
2023/04/11 06:52:37;;;;;;;6.20;1.03;;;14.30;99.90;;;;;;4870955;29;20211;-75
2023/04/11 06:55:05;;;;;;;5.90;1.10;;;14.50;99.90;;;;;;4880271;29;20237;-74
2023/04/11 06:57:33;;;;;;;9.67;1.03;;;14.50;99.90;;;;;;4876023;29;20219;-75
2023/04/11 07:00:00;;;;;;;4.13;0.80;;;14.30;99.90;;;;;;4878859;29;20590;-73
2023/04/11 07:02:27;;;;;;;6.47;0.60;;;14.40;99.90;;;;;;4879838;29;20306;-85
2023/04/11 07:04:55;;;;;;;4.23;0.70;;;14.60;99.90;;;;;;4879980;29;20278;-80
2023/04/11 07:07:22;;;;;;;3.23;0.67;;;14.30;99.90;;;;;;4878830;29;20207;-80
2023/04/11 07:09:49;;;;;;;4.30;1.50;;;14.20;99.90;;;;;;4878065;29;20678;-78
2023/04/11 07:12:16;;;;;;;4.13;0.87;;;14.10;99.90;;;;;;4879691;29;20582;-87
2023/04/11 07:14:42;;;;;;;4.40;0.80;;;14.40;99.90;;;;;;4879659;29;20324;-78
2023/04/11 07:17:09;;;;;;;10.07;1.20;;;14.40;99.90;;;;;;4879492;29;20226;-76
2023/04/11 07:19:36;;;;;;;4.97;0.70;;;14.60;99.90;;;;;;4878920;29;20666;-80
2023/04/11 07:22:04;;;;;;;3.77;0.90;;;15.00;99.90;;;;;;4879998;29;20221;-82
2023/04/11 07:24:31;;;;;;;5.03;0.80;;;15.10;99.90;;;;;;4879913;29;20242;-81
2023/04/11 07:27:00;;;;;;;3.00;0.50;;;14.50;99.90;;;;;;4879855;29;20298;-84
2023/04/11 07:29:27;;;;;;;6.37;0.83;;;14.40;99.90;;;;;;4880780;29;20215;-80
2023/04/11 07:31:54;;;;;;;7.83;0.93;;;14.80;99.90;;;;;;4880422;29;20215;-79
2023/04/11 07:34:21;;;;;;;4.13;0.97;;;14.50;99.90;;;;;;4880178;29;20238;-79
2023/04/11 07:36:48;;;;;;;4.80;0.70;;;14.30;99.90;;;;;;4880159;29;20217;-82
2023/04/11 07:39:17;;;;;;;5.27;1.33;;;14.20;99.90;;;;;;4880170;29;20685;-82
2023/04/11 07:41:44;;;;;;;7.40;0.93;;;13.90;99.90;;;;;;4880121;29;20222;-83
2023/04/11 07:44:11;;;;;;;5.50;0.80;;;13.40;99.90;;;;;;4879886;29;20238;-80
2023/04/11 07:46:38;;;;;;;4.47;1.00;;;13.40;99.90;;;;;;4879982;29;20229;-82
2023/04/11 07:49:04;;;;;;;4.27;0.50;;;13.10;99.90;;;;;;4879750;29;20207;-81
2023/04/11 07:51:31;;;;;;;4.43;1.00;;;13.10;99.90;;;;;;4880013;29;20241;-78
2023/04/11 07:53:58;;;;;;;3.97;1.10;;;13.50;99.90;;;;;;4879876;29;20231;-83
2023/04/11 07:56:26;;;;;;;5.20;1.20;;;13.60;99.90;;;;;;4879619;29;20217;-75
2023/04/11 07:58:53;;;;;;;4.57;0.80;;;13.90;99.90;;;;;;4879661;29;20211;-74
2023/04/11 08:01:21;;;;;;;2.60;0.77;;;14.10;99.90;;;;;;4879324;29;20686;-74
2023/04/11 08:03:48;;;;;;;3.73;0.70;;;14.20;99.90;;;;;;4878944;29;20234;-73
2023/04/11 08:06:15;;;;;;;4.63;0.80;;;14.60;99.90;;;;;;4879703;29;20242;-75
2023/04/11 08:08:42;;;;;;;2.43;0.80;;;14.10;99.90;;;;;;4879536;29;20207;-76
2023/04/11 08:11:09;;;;;;;4.23;0.90;;;14.30;99.90;;;;;;4879579;29;20215;-73
2023/04/11 08:13:38;;;;;;;7.93;0.90;;;14.50;99.90;;;;;;4879353;29;20235;-73
2023/04/11 08:16:06;;;;;;;4.80;0.47;;;15.10;99.90;;;;;;4879336;29;20215;-73
2023/04/11 08:18:34;;;;;;;5.33;0.97;;;15.10;99.90;;;;;;4879317;29;20706;-73
2023/04/11 08:21:00;;;;;;;4.10;1.20;;;15.00;99.90;;;;;;4879063;29;20222;-74
2023/04/11 08:23:28;;;;;;;3.67;0.70;;;14.80;99.90;;;;;;4878871;29;20682;-74
2023/04/11 08:25:55;;;;;;;6.57;0.83;;;14.90;99.90;;;;;;4879394;29;20267;-74
2023/04/11 08:28:22;;;;;;;6.53;0.80;;;15.40;99.90;;;;;;4879104;29;20211;-73
2023/04/11 08:30:54;;;;;;;3.87;0.60;;;16.20;99.90;;;;;;4878884;29;20744;-73
2023/04/11 08:33:24;;;;;;;2.47;0.90;;;16.10;99.90;;;;;;4878984;29;20207;-74
2023/04/11 08:35:51;;;;;;;4.93;0.90;;;16.00;99.90;;;;;;4878966;29;20762;-73
2023/04/11 08:38:17;;;;;;;4.07;0.60;;;15.00;99.90;;;;;;4878924;29;20219;-75
2023/04/11 08:40:44;;;;;;;3.87;0.40;;;14.90;99.90;;;;;;4878934;29;20211;-74
2023/04/11 08:43:11;;;;;;;6.07;0.70;;;15.00;99.90;;;;;;4878615;29;20222;-75
2023/04/11 08:45:38;;;;;;;5.43;0.80;;;15.50;99.90;;;;;;4878684;29;20290;-74
2023/04/11 08:48:07;;;;;;;4.60;0.80;;;15.80;99.90;;;;;;4878970;29;20222;-73
2023/04/11 08:50:34;;;;;;;3.13;0.70;;;15.60;99.90;;;;;;4878996;29;20336;-73
2023/04/11 08:53:02;;;;;;;1.43;0.40;;;15.80;99.90;;;;;;4879008;29;20223;-74
2023/04/11 08:55:29;;;;;;;5.67;0.60;;;15.90;99.90;;;;;;4879190;29;20226;-73
2023/04/11 08:57:58;;;;;;;3.60;0.90;;;15.70;99.90;;;;;;4878606;29;20215;-74
2023/04/11 09:00:27;;;;;;;4.10;0.90;;;15.30;99.90;;;;;;4876134;29;20212;-73
2023/04/11 09:02:56;;;;;;;4.40;0.63;;;15.50;99.90;;;;;;4877412;29;20215;-73
2023/04/11 09:05:28;;;;;;;5.87;0.70;;;15.60;99.90;;;;;;4876883;29;20345;-73
2023/04/11 09:07:56;;;;;;;2.17;0.60;;;15.80;99.90;;;;;;4874817;29;20211;-75
2023/04/11 09:10:24;;;;;;;2.03;0.40;;;16.20;99.90;;;;;;4877707;29;20240;-72
2023/04/11 09:12:51;;;;;;;3.27;1.17;;;16.30;99.90;;;;;;4877195;29;20207;-73
2023/04/11 09:15:19;;;;;;;2.20;0.80;;;16.30;99.90;;;;;;4877329;29;20326;-73
2023/04/11 09:17:46;;;;;;;2.60;0.63;;;15.40;99.90;;;;;;4877135;29;20256;-73
2023/04/11 09:20:18;;;;;;;3.80;0.63;;;15.00;99.90;;;;;;4877475;29;20302;-73
2023/04/11 09:22:49;;;;;;;3.43;0.50;;;15.30;99.90;;;;;;4877537;29;20219;-72
2023/04/11 09:25:16;;;;;;;5.53;0.93;;;16.10;99.90;;;;;;4877573;29;20650;-73
2023/04/11 09:27:43;;;;;;;2.93;0.90;;;16.20;99.90;;;;;;4877430;29;20297;-72
2023/04/11 09:30:23;;;;;;;4.20;0.60;;;15.90;99.90;;;;;;4877125;29;20642;-73
2023/04/11 09:32:52;;;;;;;5.00;0.67;;;16.10;99.90;;;;;;4877694;29;20215;-73
2023/04/11 09:35:22;;;;;;;3.70;0.70;;;15.70;99.90;;;;;;4880539;29;20326;-74
2023/04/11 09:37:53;;;;;;;2.37;0.50;;;15.50;99.90;;;;;;4880645;29;20211;-73
2023/04/11 09:40:22;;;;;;;2.53;0.50;;;15.60;99.90;;;;;;4874119;29;20207;-73
2023/04/11 09:42:56;;;;;;;4.37;0.53;;;15.60;99.90;;;;;;4880454;29;20219;-72
2023/04/11 09:45:24;;;;;;;4.97;0.60;;;15.80;99.90;;;;;;4880309;29;20243;-74
2023/04/11 09:47:52;;;;;;;1.73;0.40;;;15.60;99.90;;;;;;4880131;29;20223;-74
2023/04/11 09:50:20;;;;;;;4.53;0.80;;;15.20;99.90;;;;;;4880012;29;20211;-78
2023/04/11 09:52:47;;;;;;;6.07;0.97;;;15.30;99.90;;;;;;4880299;29;20382;-73
2023/04/11 09:55:18;;;;;;;2.10;0.60;;;15.40;99.90;;;;;;4879443;29;20231;-74
2023/04/11 09:57:46;;;;;;;1.90;0.63;;;15.20;99.90;;;;;;4880138;29;20674;-73
2023/04/11 10:00:15;;;;;;;4.00;0.50;;;15.30;99.90;;;;;;4881514;29;20663;-73
2023/04/11 10:02:44;;;;;;;2.07;0.70;;;15.30;99.90;;;;;;4880873;29;20730;-74
2023/04/11 10:05:14;;;;;;;3.07;0.60;;;15.40;99.90;;;;;;4881015;29;20247;-75
2023/04/11 10:07:52;;;;;;;1.80;0.47;;;15.40;99.90;;;;;;4881616;29;20218;-74
2023/04/11 10:10:22;;;;;;;4.57;0.77;;;15.40;99.90;;;;;;4880871;29;20696;-74
2023/04/11 10:12:49;;;;;;;7.13;0.67;;;15.60;99.90;;;;;;4881190;29;20223;-74
2023/04/11 10:15:17;;;;;;;2.37;0.60;;;15.50;99.90;;;;;;4881160;29;20265;-74
2023/04/11 10:18:07;;;;;;;4.13;0.83;;;15.60;99.90;;;;;;4881027;29;20215;-74
2023/04/11 10:20:45;;;;;;;5.27;0.70;;;15.70;99.90;;;;;;4880768;29;20211;-75
2023/04/11 10:23:13;;;;;;;2.73;0.50;;;15.50;99.90;;;;;;4880681;29;20217;-73
2023/04/11 10:25:57;;;;;;;4.60;0.60;;;15.00;99.90;;;;;;4880909;29;20274;-73
2023/04/11 10:28:36;;;;;;;2.30;0.60;;;14.50;99.90;;;;;;4881428;29;20211;-73
2023/04/11 10:31:06;;;;;;;2.27;0.50;;;14.60;99.90;;;;;;4881153;29;20318;-73
2023/04/11 10:33:34;;;;;;;3.10;0.50;;;14.40;99.90;;;;;;4880931;29;20680;-73
2023/04/11 10:36:04;;;;;;;6.57;0.80;;;14.30;99.90;;;;;;4881093;29;20215;-73
2023/04/11 10:38:50;;;;;;;6.13;0.70;;;14.10;99.90;;;;;;4880881;29;20245;-73
2023/04/11 10:41:36;;;;;;;3.33;0.57;;;14.00;99.90;;;;;;4880900;29;20873;-73
2023/04/11 10:44:21;;;;;;;2.10;0.60;;;13.80;99.90;;;;;;4880649;29;20231;-73
2023/04/11 10:46:50;;;;;;;1.33;0.40;;;13.80;99.90;;;;;;4880946;29;20583;-73
2023/04/11 10:49:35;;;;;;;3.70;0.50;;;14.20;99.90;;;;;;4880667;29;20241;-75
2023/04/11 10:52:19;;;;;;;1.47;0.60;;;14.30;99.90;;;;;;4876190;29;20241;-73
2023/04/11 10:54:46;;;;;;;7.83;0.40;;;14.10;99.90;;;;;;4878220;29;20228;-73
2023/04/11 10:57:14;;;;;;;3.57;0.73;;;13.70;99.90;;;;;;4879090;29;20215;-77
2023/04/11 10:59:58;;;;;;;3.03;0.67;;;13.40;99.90;;;;;;4879023;29;20276;-76
2023/04/11 11:02:37;;;;;;;4.50;0.60;;;13.30;99.90;;;;;;4878829;29;20215;-73
2023/04/11 11:05:19;;;;;;;4.23;1.03;;;13.20;99.90;;;;;;4879954;29;20235;-74
2023/04/11 11:07:47;;;;;;;5.00;0.80;;;13.30;99.90;;;;;;4880176;29;20218;-74
2023/04/11 11:10:14;;;;;;;4.93;0.60;;;13.30;99.90;;;;;;4880321;29;20283;-74
2023/04/11 11:12:54;;;;;;;1.80;0.50;;;13.50;99.90;;;;;;4880303;29;20211;-74
2023/04/11 11:15:21;;;;;;;3.57;0.60;;;13.90;99.90;;;;;;4879985;29;20652;-74
2023/04/11 11:17:48;;;;;;;2.37;0.70;;;14.30;99.90;;;;;;4880087;29;20659;-74
2023/04/11 11:20:18;;;;;;;3.27;0.60;;;14.60;99.90;;;;;;4880230;29;20267;-73
2023/04/11 11:22:59;;;;;;;5.20;0.57;;;14.70;99.90;;;;;;4880184;29;20213;-74
2023/04/11 11:25:26;;;;;;;5.03;0.70;;;14.70;99.90;;;;;;4880133;29;20281;-73
2023/04/11 11:28:05;;;;;;;3.80;0.40;;;15.10;99.90;;;;;;4879994;29;20223;-74
2023/04/11 11:30:32;;;;;;;3.70;0.80;;;14.90;99.90;;;;;;4880243;29;20223;-73
2023/04/11 11:32:59;;;;;;;1.33;0.40;;;14.90;99.90;;;;;;4880173;29;20215;-73
2023/04/11 11:35:26;;;;;;;1.77;0.30;;;14.70;99.90;;;;;;4880011;29;20235;-73
2023/04/11 11:37:53;;;;;;;1.20;0.40;;;14.40;99.90;;;;;;4879764;29;20211;-74
2023/04/11 11:40:21;;;;;;;3.03;0.73;;;14.50;99.90;;;;;;4879724;29;20616;-73
2023/04/11 11:42:50;;;;;;;1.67;0.53;;;14.50;99.90;;;;;;4880078;29;20207;-73
2023/04/11 11:45:20;;;;;;;2.10;0.63;;;14.40;99.90;;;;;;4879652;29;20729;-75
2023/04/11 11:47:48;;;;;;;4.27;0.53;;;14.70;99.90;;;;;;4879769;29;20245;-74
2023/04/11 11:50:28;;;;;;;2.90;0.40;;;15.10;99.90;;;;;;4879318;29;20237;-73
2023/04/11 11:52:55;;;;;;;1.70;0.30;;;15.20;99.80;;;;;;4879653;29;20293;-73
2023/04/11 11:55:33;;;;;;;4.87;0.70;;;15.30;99.90;;;;;;4879282;29;20238;-73
2023/04/11 11:58:01;;;;;;;3.30;0.73;;;15.30;99.90;;;;;;4879632;29;20259;-74
2023/04/11 12:00:31;;;;;;;1.07;0.40;;;15.30;99.90;;;;;;4879498;29;20674;-74
2023/04/11 12:02:59;;;;;;;4.23;0.60;;;15.00;99.90;;;;;;4879692;29;20211;-74
2023/04/11 12:05:28;;;;;;;6.03;0.60;;;14.60;99.90;;;;;;4879327;29;20238;-74
2023/04/11 12:07:57;;;;;;;2.07;0.70;;;14.60;99.90;;;;;;4879369;29;20663;-73
2023/04/11 12:10:25;;;;;;;3.37;0.50;;;14.90;99.90;;;;;;4879721;29;20240;-74
2023/04/11 12:12:51;;;;;;;2.33;0.40;;;15.00;99.90;;;;;;4879400;29;20211;-76
2023/04/11 12:15:19;;;;;;;4.67;0.50;;;14.90;99.90;;;;;;4879512;29;20236;-75
2023/04/11 12:17:51;;;;;;;0.80;0.37;;;14.90;99.90;;;;;;4879460;29;20215;-74
2023/04/11 12:20:22;;;;;;;3.53;0.70;;;14.80;99.90;;;;;;4879606;29;20612;-74
2023/04/11 12:22:49;;;;;;;6.87;0.70;;;14.70;99.90;;;;;;4879593;29;20738;-81
2023/04/11 12:25:16;;;;;;;1.97;0.50;;;14.80;99.90;;;;;;4879250;29;20791;-74
2023/04/11 12:27:44;;;;;;;3.87;0.80;;;14.80;99.90;;;;;;4879126;29;20253;-74
2023/04/11 12:30:13;;;;;;;3.10;0.50;;;14.90;99.90;;;;;;4879065;29;20570;-75
2023/04/11 12:32:40;;;;;;;3.53;0.50;;;15.30;99.90;;;;;;4879113;29;20211;-74
2023/04/11 12:35:10;;;;;;;4.03;0.40;;;15.70;99.90;;;;;;4879053;29;20231;-73
2023/04/11 12:37:37;;;;;;;4.53;0.60;;;15.60;99.30;;;;;;4879117;29;20211;-74
2023/04/11 12:40:09;;;;;;;3.47;0.77;;;15.70;99.90;;;;;;4879653;29;20215;-75
2023/04/11 12:42:37;;;;;;;3.00;0.70;;;15.60;99.70;;;;;;4879238;29;20215;-74
2023/04/11 12:45:05;;;;;;;2.83;0.60;;;15.60;99.80;;;;;;4879635;29;20231;-76
2023/04/11 12:47:32;;;;;;;2.37;0.60;;;15.70;99.90;;;;;;4878799;29;20389;-79
2023/04/11 12:49:59;;;;;;;1.43;0.50;;;15.70;99.80;;;;;;4878927;29;20238;-74
2023/04/11 12:52:28;;;;;;;3.17;0.67;;;15.80;99.80;;;;;;4879468;29;20575;-74
2023/04/11 12:54:54;;;;;;;5.97;0.60;;;16.00;99.90;;;;;;4879647;29;20228;-75
2023/04/11 12:57:22;;;;;;;2.57;0.60;;;15.90;99.90;;;;;;4879577;29;20219;-74
2023/04/11 12:59:50;;;;;;;6.40;0.63;;;15.80;99.90;;;;;;4879083;29;20207;-73
2023/04/11 13:02:16;;;;;;;5.07;0.60;;;15.90;99.90;;;;;;4878910;29;20659;-75
2023/04/11 13:04:43;;;;;;;7.10;1.23;;;15.70;99.70;;;;;;4878806;29;20235;-75
2023/04/11 13:07:11;;;;;;;3.10;0.60;;;15.40;99.90;;;;;;4879085;29;20234;-74
2023/04/11 13:09:39;;;;;;;4.40;1.00;;;15.20;99.90;;;;;;4881927;29;20210;-74
2023/04/11 13:12:06;;;;;;;2.20;0.70;;;15.00;99.90;;;;;;4882762;29;20284;-74
2023/04/11 13:14:35;;;;;;;3.23;0.70;;;15.20;99.90;;;;;;4882444;29;20235;-74
2023/04/11 13:17:02;;;;;;;2.10;0.50;;;15.30;99.90;;;;;;4882320;29;20211;-73
2023/04/11 13:19:29;;;;;;;2.37;0.60;;;15.20;99.90;;;;;;4882300;29;20211;-74
2023/04/11 13:21:56;;;;;;;3.20;0.53;;;15.30;99.90;;;;;;4882774;29;20215;-86
2023/04/11 13:24:25;;;;;;;1.93;0.57;;;15.20;99.90;;;;;;4882439;29;20231;-80
2023/04/11 13:26:54;;;;;;;1.80;0.40;;;15.40;99.90;;;;;;4883045;29;20773;-88
2023/04/11 13:29:21;;;;;;;2.33;0.47;;;15.70;99.50;;;;;;4883292;29;20211;-83
2023/04/11 13:31:48;;;;;;;2.00;0.30;;;15.90;99.30;;;;;;4882895;29;20671;-87
2023/04/11 13:34:15;;;;;;;2.00;0.37;;;16.00;98.90;;;;;;4882574;29;20717;-80
2023/04/11 13:36:42;;;;;;;3.00;0.40;;;16.10;97.50;;;;;;4882882;29;20598;-87
2023/04/11 13:39:08;;;;;;;2.03;0.57;;;15.70;97.90;;;;;;4882581;29;20632;-75
2023/04/11 13:41:35;;;;;;;4.93;0.40;;;15.60;98.60;;;;;;4882762;29;20215;-88
2023/04/11 13:44:03;;;;;;;2.20;0.60;;;15.60;99.00;;;;;;4882751;29;20238;-84
2023/04/11 13:46:30;;;;;;;1.70;0.50;;;15.50;99.50;;;;;;4882888;29;20278;-75
2023/04/11 13:48:59;;;;;;;4.13;1.00;;;15.70;99.70;;;;;;4881699;29;20605;-74
2023/04/11 13:51:26;;;;;;;2.57;0.60;;;15.70;99.20;;;;;;4881875;29;20249;-75
2023/04/11 13:53:52;;;;;;;1.37;0.43;;;15.70;99.00;;;;;;4881595;29;20278;-74
2023/04/11 13:56:19;;;;;;;1.80;0.40;;;15.80;98.90;;;;;;4881579;29;20693;-73
2023/04/11 13:58:46;;;;;;;2.40;0.70;;;16.00;98.50;;;;;;4881335;29;20259;-73
2023/04/11 14:01:15;;;;;;;1.83;0.60;;;16.10;98.80;;;;;;4881699;29;20237;-74
2023/04/11 14:03:41;;;;;;;3.77;0.33;;;16.20;98.20;;;;;;4881326;29;20782;-73
2023/04/11 14:06:09;;;;;;;2.67;0.30;;;16.00;98.20;;;;;;4881530;29;20301;-74
2023/04/11 14:08:36;;;;;;;1.47;0.50;;;15.80;98.40;;;;;;4882261;29;20233;-74
2023/04/11 14:11:03;;;;;;;1.43;0.30;;;15.70;98.20;;;;;;4881655;29;20617;-75
2023/04/11 14:13:30;;;;;;;2.40;0.50;;;15.40;98.70;;;;;;4880984;29;20214;-74
2023/04/11 14:15:56;;;;;;;2.57;0.40;;;15.30;98.60;;;;;;4881230;29;20219;-73
2023/04/11 14:18:25;;;;;;;2.37;0.60;;;15.40;98.60;;;;;;4880891;29;20570;-74
2023/04/11 14:20:51;;;;;;;3.17;0.40;;;15.40;97.90;;;;;;4881109;29;20218;-74
2023/04/11 14:23:18;;;;;;;3.27;0.50;;;15.40;98.60;;;;;;4881277;29;20208;-75
2023/04/11 14:25:45;;;;;;;2.03;0.90;;;15.50;98.70;;;;;;4881315;29;20272;-74
2023/04/11 14:28:12;;;;;;;2.33;0.60;;;15.60;98.90;;;;;;4881332;29;20247;-74
2023/04/11 14:30:40;;;;;;;3.50;0.40;;;15.60;99.10;;;;;;4881170;29;20292;-73
2023/04/11 14:33:07;;;;;;;2.23;0.47;;;15.30;99.40;;;;;;4881040;29;20218;-74
2023/04/11 14:35:35;;;;;;;2.27;0.60;;;15.20;99.70;;;;;;4881121;29;20242;-73
2023/04/11 14:38:02;;;;;;;1.13;0.60;;;15.30;99.40;;;;;;4881150;29;20218;-74
2023/04/11 14:40:29;;;;;;;2.90;0.60;;;15.30;99.30;;;;;;4881154;29;20211;-74
2023/04/11 14:42:57;;;;;;;1.37;0.60;;;15.50;99.20;;;;;;4875919;29;20218;-74
2023/04/11 14:45:24;;;;;;;1.57;0.60;;;15.40;99.60;;;;;;4880529;29;20879;-73
2023/04/11 14:47:51;;;;;;;3.67;1.23;;;15.30;99.50;;;;;;4880206;29;20238;-73
2023/04/11 14:50:18;;;;;;;1.93;0.43;;;15.40;99.80;;;;;;4880888;29;20270;-73
2023/04/11 14:52:47;;;;;;;1.20;0.40;;;15.20;99.90;;;;;;4880459;29;20221;-73
2023/04/11 14:55:14;;;;;;;1.90;0.50;;;15.20;99.50;;;;;;4880476;29;20646;-74
2023/04/11 14:57:45;;;;;;;4.00;0.63;;;15.10;99.30;;;;;;4876998;29;20215;-75
2023/04/11 15:00:17;;;;;;;3.50;0.60;;;15.10;99.50;;;;;;4879106;29;20211;-75
2023/04/11 15:02:45;;;;;;;1.73;0.50;;;15.20;99.60;;;;;;4879122;29;20595;-74
2023/04/11 15:05:15;;;;;;;1.90;0.50;;;15.30;99.90;;;;;;4879071;29;20325;-74
2023/04/11 15:07:42;;;;;;;4.57;0.57;;;15.40;99.90;;;;;;4879018;29;20439;-74
2023/04/11 15:10:12;;;;;;;2.50;0.77;;;15.60;99.90;;;;;;4879034;29;20211;-73
2023/04/11 15:12:39;;;;;;;0.97;0.40;;;15.40;99.90;;;;;;4878085;29;20224;-76
2023/04/11 15:15:08;;;;;;;3.23;0.60;;;15.30;99.90;;;;;;4878358;29;20246;-74
2023/04/11 15:17:39;;;;;;;2.90;0.50;;;15.30;99.90;;;;;;4878981;29;20226;-74
2023/04/11 15:20:08;;;;;;;2.17;0.47;;;15.40;99.90;;;;;;4878899;29;20211;-74
2023/04/11 15:22:38;;;;;;;4.40;0.40;;;15.60;99.90;;;;;;4878612;29;20675;-74
2023/04/11 15:25:07;;;;;;;3.20;0.57;;;15.50;99.90;;;;;;4878612;29;20329;-73
2023/04/11 15:27:35;;;;;;;3.80;0.60;;;15.50;99.90;;;;;;4878313;29;20342;-74
2023/04/11 15:30:02;;;;;;;1.97;0.50;;;15.00;99.90;;;;;;4878565;29;20219;-74
2023/04/11 15:32:29;;;;;;;3.77;0.40;;;14.80;99.90;;;;;;4878372;29;20216;-74
2023/04/11 15:34:56;;;;;;;3.47;0.30;;;14.80;99.90;;;;;;4878390;29;20246;-72
2023/04/11 15:37:23;;;;;;;3.30;0.57;;;14.70;99.90;;;;;;4878272;29;20749;-74
2023/04/11 15:39:50;;;;;;;1.33;0.47;;;14.80;99.90;;;;;;4878095;29;20250;-75
2023/04/11 15:42:17;;;;;;;1.13;0.27;;;14.90;99.90;;;;;;4878643;29;20208;-79
2023/04/11 15:44:45;;;;;;;3.40;0.40;;;15.00;99.90;;;;;;4876384;29;20231;-74
2023/04/11 15:47:12;;;;;;;2.53;0.70;;;14.90;99.90;;;;;;4878499;29;20235;-76
2023/04/11 15:49:39;;;;;;;3.30;0.47;;;14.80;99.90;;;;;;4878328;29;20215;-75
2023/04/11 15:52:06;;;;;;;1.13;0.50;;;14.90;99.90;;;;;;4877758;29;20297;-74
2023/04/11 15:54:33;;;;;;;3.00;0.50;;;14.90;99.90;;;;;;4877775;29;20234;-76
2023/04/11 15:57:01;;;;;;;3.53;0.60;;;14.80;99.90;;;;;;4878318;29;20211;-76
2023/04/11 15:59:28;;;;;;;2.47;0.50;;;14.70;99.90;;;;;;4878571;29;20211;-72
2023/04/11 16:01:56;;;;;;;4.07;0.70;;;14.70;99.90;;;;;;4877877;29;20215;-74
2023/04/11 16:04:24;;;;;;;1.73;0.80;;;14.60;99.90;;;;;;4878672;29;20238;-73
2023/04/11 16:06:51;;;;;;;5.20;0.47;;;14.40;99.90;;;;;;4877638;29;20239;-76
2023/04/11 16:09:18;;;;;;;2.17;0.73;;;14.30;99.90;;;;;;4877850;29;20219;-77
2023/04/11 16:11:44;;;;;;;4.03;0.70;;;14.20;99.90;;;;;;4878434;29;20263;-73
2023/04/11 16:14:12;;;;;;;1.00;0.53;;;14.30;99.90;;;;;;4878035;29;20235;-72
2023/04/11 16:16:38;;;;;;;2.80;0.70;;;14.50;99.90;;;;;;4877621;29;20614;-73
2023/04/11 16:19:07;;;;;;;5.50;0.40;;;14.40;99.90;;;;;;4877684;29;20217;-73
2023/04/11 16:21:34;;;;;;;3.50;0.70;;;14.40;99.90;;;;;;4877339;29;20207;-72
2023/04/11 16:24:01;;;;;;;2.43;0.43;;;14.30;99.90;;;;;;4877861;29;20591;-72
2023/04/11 16:26:28;;;;;;;2.30;0.47;;;14.20;99.90;;;;;;4877898;29;20209;-72
2023/04/11 16:28:54;;;;;;;3.27;0.50;;;14.20;99.90;;;;;;4877746;29;20702;-72
2023/04/11 16:31:23;;;;;;;3.07;0.63;;;14.00;99.90;;;;;;4877811;29;20203;-72
2023/04/11 16:33:51;;;;;;;1.30;0.57;;;14.00;99.90;;;;;;4859242;29;20284;-73
2023/04/11 16:36:20;;;;;;;4.50;0.70;;;13.80;99.90;;;;;;4865596;29;20260;-73
2023/04/11 16:38:48;;;;;;;6.33;0.60;;;13.80;99.90;;;;;;4877424;29;20700;-73
2023/04/11 16:41:15;;;;;;;5.80;0.63;;;13.60;99.90;;;;;;4877612;29;20613;-72
2023/04/11 16:43:42;;;;;;;3.20;1.00;;;13.40;99.90;;;;;;4880821;29;20226;-73
2023/04/11 16:46:13;;;;;;;4.47;0.53;;;13.30;99.90;;;;;;4881416;29;20215;-72
2023/04/11 16:48:40;;;;;;;1.00;0.57;;;13.20;99.90;;;;;;4880721;29;20294;-73
2023/04/11 16:51:07;;;;;;;2.57;0.50;;;13.20;99.90;;;;;;4881314;29;20627;-74
2023/04/11 16:53:35;;;;;;;2.20;0.50;;;13.00;99.90;;;;;;4881314;29;20305;-73
2023/04/11 16:56:02;;;;;;;3.13;0.60;;;13.00;99.90;;;;;;4881391;29;20214;-74
2023/04/11 16:58:30;;;;;;;3.27;0.97;;;13.10;99.90;;;;;;4881051;29;20254;-73
2023/04/11 17:00:58;;;;;;;2.60;0.70;;;13.00;99.90;;;;;;4880357;29;20578;-73
2023/04/11 17:03:25;;;;;;;4.63;0.90;;;12.90;99.90;;;;;;4880956;29;20221;-74
2023/04/11 17:05:51;;;;;;;5.30;0.97;;;13.10;99.90;;;;;;4881130;29;20214;-75
2023/04/11 17:08:18;;;;;;;4.70;0.47;;;13.00;99.90;;;;;;4880699;29;20235;-75
2023/04/11 17:10:46;;;;;;;2.47;0.70;;;13.00;99.90;;;;;;4880936;29;20798;-74
2023/04/11 17:13:14;;;;;;;1.40;0.67;;;13.00;99.90;;;;;;4880982;29;20642;-73
2023/04/11 17:15:41;;;;;;;2.40;0.77;;;12.90;99.90;;;;;;4880658;29;20227;-74
2023/04/11 17:18:08;;;;;;;1.70;0.60;;;12.70;99.90;;;;;;4880659;29;20211;-73
2023/04/11 17:20:35;;;;;;;2.17;0.60;;;12.60;99.90;;;;;;4881237;29;20297;-73
2023/04/11 17:23:02;;;;;;;1.53;0.50;;;12.60;99.90;;;;;;4881024;29;20212;-74
2023/04/11 17:25:29;;;;;;;0.80;0.30;;;12.70;99.90;;;;;;4880981;29;20238;-74
2023/04/11 17:27:59;;;;;;;1.23;0.53;;;12.70;99.90;;;;;;4880436;29;20242;-74
2023/04/11 17:30:26;;;;;;;4.47;0.53;;;12.70;99.90;;;;;;4872478;29;20635;-74
2023/04/11 17:32:54;;;;;;;2.13;0.50;;;12.70;99.90;;;;;;4865426;29;20219;-74
2023/04/11 17:35:21;;;;;;;2.40;0.40;;;12.70;99.90;;;;;;4869376;29;20236;-77
2023/04/11 17:37:48;;;;;;;1.57;0.40;;;12.50;99.90;;;;;;4878405;29;20686;-75
2023/04/11 17:40:16;;;;;;;1.67;0.47;;;12.40;99.90;;;;;;4874126;29;20229;-74
2023/04/11 17:42:44;;;;;;;0.73;0.40;;;12.60;99.90;;;;;;4874897;29;20552;-75
2023/04/11 17:45:13;;;;;;;1.27;0.60;;;12.60;99.90;;;;;;4878206;29;20235;-74
2023/04/11 17:47:41;;;;;;;2.73;0.47;;;12.50;99.90;;;;;;4875205;29;20426;-75
2023/04/11 17:50:10;;;;;;;2.43;0.60;;;12.40;99.90;;;;;;4862782;29;20220;-75
2023/04/11 17:52:39;;;;;;;1.23;0.50;;;12.20;99.90;;;;;;4874099;29;20242;-74
2023/04/11 17:55:07;;;;;;;1.90;0.50;;;12.10;99.90;;;;;;4877961;29;20231;-74
2023/04/11 17:57:36;;;;;;;1.50;0.60;;;12.20;99.90;;;;;;4872681;29;20208;-74
2023/04/11 18:00:06;;;;;;;1.60;0.43;;;12.20;99.90;;;;;;4874286;29;20218;-75
2023/04/11 18:02:34;;;;;;;2.33;0.67;;;12.20;99.90;;;;;;4880627;29;20207;-74
2023/04/11 18:05:01;;;;;;;1.17;0.60;;;12.20;99.90;;;;;;4880780;29;20231;-74
2023/04/11 18:07:28;;;;;;;1.10;0.40;;;12.10;99.90;;;;;;4880910;29;20250;-76
2023/04/11 18:09:55;;;;;;;0.93;0.60;;;12.10;99.90;;;;;;4880438;29;20218;-74
2023/04/11 18:12:22;;;;;;;3.03;0.80;;;11.90;99.90;;;;;;4880548;29;20211;-74
2023/04/11 18:14:49;;;;;;;2.47;0.50;;;11.90;99.90;;;;;;4876783;29;20325;-73
2023/04/11 18:17:16;;;;;;;3.13;0.80;;;11.90;99.90;;;;;;4880119;29;20215;-75
2023/04/11 18:19:44;;;;;;;2.53;0.80;;;11.90;99.90;;;;;;4879822;29;20705;-73
2023/04/11 18:22:11;;;;;;;3.97;0.60;;;11.90;99.90;;;;;;4879108;29;20298;-74
2023/04/11 18:24:38;;;;;;;2.47;0.70;;;11.80;99.90;;;;;;4879758;29;20318;-73
2023/04/11 18:27:05;;;;;;;3.77;0.73;;;11.80;99.90;;;;;;4879463;29;20226;-73
2023/04/11 18:29:32;;;;;;;2.03;0.50;;;11.70;99.90;;;;;;4879799;29;20242;-73
2023/04/11 18:31:59;;;;;;;3.50;1.33;;;11.60;99.90;;;;;;4878445;29;20217;-73
2023/04/11 18:34:26;;;;;;;1.20;0.60;;;11.60;99.90;;;;;;4879218;29;20236;-73
2023/04/11 18:36:54;;;;;;;4.40;0.90;;;11.70;99.90;;;;;;4878987;29;20268;-70
2023/04/11 18:39:22;;;;;;;1.57;0.67;;;11.80;99.90;;;;;;4878824;29;20225;-73
2023/04/11 18:41:49;;;;;;;2.57;0.60;;;11.80;99.90;;;;;;4878989;29;20215;-73
2023/04/11 18:44:16;;;;;;;2.83;0.80;;;11.80;99.90;;;;;;4871318;29;20231;-71
2023/04/11 18:46:43;;;;;;;1.40;0.63;;;11.70;99.90;;;;;;4878741;29;20307;-73
2023/04/11 18:49:10;;;;;;;3.40;0.90;;;11.70;99.90;;;;;;4879182;29;20697;-72
2023/04/11 18:51:36;;;;;;;3.40;0.90;;;11.70;99.90;;;;;;4879399;29;20219;-73
2023/04/11 18:54:05;;;;;;;4.33;1.57;;;11.70;99.90;;;;;;4879135;29;20373;-73
2023/04/11 18:56:32;;;;;;;3.20;1.07;;;11.80;99.90;;;;;;4879468;29;20656;-74
2023/04/11 18:58:59;;;;;;;3.73;0.60;;;11.70;99.90;;;;;;4873361;29;20215;-74
2023/04/11 19:01:25;;;;;;;4.07;1.17;;;11.70;99.90;;;;;;4866509;29;20310;-74
2023/04/11 19:03:55;;;;;;;5.20;1.07;;;11.70;99.90;;;;;;4873085;29;20235;-74
2023/04/11 19:06:22;;;;;;;3.53;1.00;;;11.70;99.90;;;;;;4873020;29;20660;-73
2023/04/11 19:08:50;;;;;;;4.10;0.97;;;11.80;99.90;;;;;;4873368;29;20330;-74
2023/04/11 19:11:19;;;;;;;2.67;1.03;;;11.70;99.90;;;;;;4874450;29;20302;-74
2023/04/11 19:13:46;;;;;;;4.60;1.10;;;11.70;99.90;;;;;;4873902;29;20635;-74
2023/04/11 19:16:13;;;;;;;6.23;1.23;;;11.80;99.90;;;;;;4870920;29;20314;-74
2023/04/11 19:18:39;;;;;;;8.70;1.73;;;11.80;99.90;;;;;;4873677;29;20571;-73
2023/04/11 19:21:06;;;;;;;3.43;1.07;;;11.80;99.90;;;;;;4870541;29;20211;-74
2023/04/11 19:23:33;;;;;;;2.60;0.90;;;11.80;99.90;;;;;;4875850;29;20218;-75
2023/04/11 19:26:01;;;;;;;4.90;1.10;;;11.90;99.90;;;;;;4873829;29;20575;-73
2023/04/11 19:28:29;;;;;;;3.57;1.10;;;12.00;99.90;;;;;;4874504;29;20246;-76
2023/04/11 19:30:55;;;;;;;3.60;1.00;;;11.90;99.90;;;;;;4873935;29;20199;-73
2023/04/11 19:33:24;;;;;;;4.67;1.03;;;11.80;99.90;;;;;;4878024;29;20218;-73
2023/04/11 19:35:52;;;;;;;3.47;0.90;;;11.80;99.90;;;;;;4869295;29;20299;-73
2023/04/11 19:38:20;;;;;;;4.80;1.10;;;11.80;99.90;;;;;;4874047;29;20298;-74
2023/04/11 19:40:46;;;;;;;3.00;0.97;;;11.80;99.90;;;;;;4871051;29;20235;-78